sensor_id;sensor_type;location;lat;lon;timestamp;P1;durP1;ratioP1;P2;durP2;ratioP2
15712;SDS011;7957;51.608;6.916;2023-07-20T00:01:44;3.63;;;2.70;;
15712;SDS011;7957;51.608;6.916;2023-07-20T00:04:13;4.33;;;2.90;;
15712;SDS011;7957;51.608;6.916;2023-07-20T00:06:42;5.43;;;2.97;;
15712;SDS011;7957;51.608;6.916;2023-07-20T00:09:09;3.10;;;2.80;;
15712;SDS011;7957;51.608;6.916;2023-07-20T00:11:37;3.80;;;3.00;;
15712;SDS011;7957;51.608;6.916;2023-07-20T00:14:06;3.70;;;3.13;;
15712;SDS011;7957;51.608;6.916;2023-07-20T00:16:33;3.47;;;2.90;;
15712;SDS011;7957;51.608;6.916;2023-07-20T00:19:01;3.73;;;2.90;;
15712;SDS011;7957;51.608;6.916;2023-07-20T00:21:31;3.10;;;2.80;;
15712;SDS011;7957;51.608;6.916;2023-07-20T00:23:59;3.37;;;2.70;;
15712;SDS011;7957;51.608;6.916;2023-07-20T00:26:26;4.03;;;2.93;;
15712;SDS011;7957;51.608;6.916;2023-07-20T00:28:53;4.50;;;2.80;;
15712;SDS011;7957;51.608;6.916;2023-07-20T00:31:20;3.30;;;2.73;;
15712;SDS011;7957;51.608;6.916;2023-07-20T00:33:47;4.37;;;3.00;;
15712;SDS011;7957;51.608;6.916;2023-07-20T00:36:14;4.17;;;3.07;;
15712;SDS011;7957;51.608;6.916;2023-07-20T00:38:42;3.57;;;3.27;;
15712;SDS011;7957;51.608;6.916;2023-07-20T00:41:10;3.90;;;3.10;;
15712;SDS011;7957;51.608;6.916;2023-07-20T00:43:38;3.20;;;2.90;;
15712;SDS011;7957;51.608;6.916;2023-07-20T00:46:05;4.03;;;3.00;;
15712;SDS011;7957;51.608;6.916;2023-07-20T00:48:32;5.07;;;2.90;;
15712;SDS011;7957;51.608;6.916;2023-07-20T00:50:59;4.13;;;2.70;;
15712;SDS011;7957;51.608;6.916;2023-07-20T00:53:28;4.50;;;3.00;;
15712;SDS011;7957;51.608;6.916;2023-07-20T00:55:55;3.80;;;2.97;;
15712;SDS011;7957;51.608;6.916;2023-07-20T00:58:24;3.53;;;3.00;;
15712;SDS011;7957;51.608;6.916;2023-07-20T01:00:51;3.50;;;3.10;;
15712;SDS011;7957;51.608;6.916;2023-07-20T01:03:18;5.30;;;3.53;;
15712;SDS011;7957;51.608;6.916;2023-07-20T01:05:47;4.67;;;3.57;;
15712;SDS011;7957;51.608;6.916;2023-07-20T01:08:24;4.53;;;3.20;;
15712;SDS011;7957;51.608;6.916;2023-07-20T01:10:59;4.20;;;3.63;;
15712;SDS011;7957;51.608;6.916;2023-07-20T01:13:31;4.60;;;3.60;;
15712;SDS011;7957;51.608;6.916;2023-07-20T01:16:00;4.70;;;3.50;;
15712;SDS011;7957;51.608;6.916;2023-07-20T01:18:27;4.30;;;3.53;;
15712;SDS011;7957;51.608;6.916;2023-07-20T01:20:55;3.77;;;3.40;;
15712;SDS011;7957;51.608;6.916;2023-07-20T01:23:41;4.53;;;3.53;;
15712;SDS011;7957;51.608;6.916;2023-07-20T01:26:31;4.83;;;3.73;;
15712;SDS011;7957;51.608;6.916;2023-07-20T01:29:14;4.27;;;3.87;;
15712;SDS011;7957;51.608;6.916;2023-07-20T01:31:51;4.73;;;3.83;;
15712;SDS011;7957;51.608;6.916;2023-07-20T01:34:19;6.83;;;4.20;;
15712;SDS011;7957;51.608;6.916;2023-07-20T01:36:48;3.87;;;3.47;;
15712;SDS011;7957;51.608;6.916;2023-07-20T01:39:18;5.07;;;4.27;;
15712;SDS011;7957;51.608;6.916;2023-07-20T01:41:47;4.33;;;3.77;;
15712;SDS011;7957;51.608;6.916;2023-07-20T01:44:13;5.03;;;3.90;;
15712;SDS011;7957;51.608;6.916;2023-07-20T01:46:40;4.47;;;4.07;;
15712;SDS011;7957;51.608;6.916;2023-07-20T01:49:09;4.50;;;4.10;;
15712;SDS011;7957;51.608;6.916;2023-07-20T01:51:35;5.43;;;4.23;;
15712;SDS011;7957;51.608;6.916;2023-07-20T01:54:02;4.30;;;3.90;;
15712;SDS011;7957;51.608;6.916;2023-07-20T01:56:29;5.47;;;4.50;;
15712;SDS011;7957;51.608;6.916;2023-07-20T01:58:56;5.27;;;4.47;;
15712;SDS011;7957;51.608;6.916;2023-07-20T02:01:23;5.70;;;4.23;;
15712;SDS011;7957;51.608;6.916;2023-07-20T02:03:50;8.30;;;4.47;;
15712;SDS011;7957;51.608;6.916;2023-07-20T02:06:18;6.10;;;4.97;;
15712;SDS011;7957;51.608;6.916;2023-07-20T02:08:45;6.13;;;5.00;;
15712;SDS011;7957;51.608;6.916;2023-07-20T02:11:12;7.73;;;4.87;;
15712;SDS011;7957;51.608;6.916;2023-07-20T02:13:39;5.07;;;4.50;;
15712;SDS011;7957;51.608;6.916;2023-07-20T02:16:06;5.77;;;5.00;;
15712;SDS011;7957;51.608;6.916;2023-07-20T02:18:33;5.43;;;4.80;;
15712;SDS011;7957;51.608;6.916;2023-07-20T02:21:00;5.57;;;4.97;;
15712;SDS011;7957;51.608;6.916;2023-07-20T02:23:29;5.97;;;4.67;;
15712;SDS011;7957;51.608;6.916;2023-07-20T02:25:55;5.13;;;4.50;;
15712;SDS011;7957;51.608;6.916;2023-07-20T02:28:22;5.73;;;4.73;;
15712;SDS011;7957;51.608;6.916;2023-07-20T02:30:49;9.40;;;5.13;;
15712;SDS011;7957;51.608;6.916;2023-07-20T02:33:18;5.33;;;4.77;;
15712;SDS011;7957;51.608;6.916;2023-07-20T02:35:46;4.90;;;4.40;;
15712;SDS011;7957;51.608;6.916;2023-07-20T02:38:14;6.77;;;5.37;;
15712;SDS011;7957;51.608;6.916;2023-07-20T02:40:44;6.50;;;5.20;;
15712;SDS011;7957;51.608;6.916;2023-07-20T02:43:11;7.00;;;4.87;;
15712;SDS011;7957;51.608;6.916;2023-07-20T02:45:39;6.67;;;5.60;;
15712;SDS011;7957;51.608;6.916;2023-07-20T02:48:07;5.63;;;5.00;;
15712;SDS011;7957;51.608;6.916;2023-07-20T02:50:34;5.13;;;4.63;;
15712;SDS011;7957;51.608;6.916;2023-07-20T02:53:01;5.50;;;5.00;;
15712;SDS011;7957;51.608;6.916;2023-07-20T02:55:28;5.97;;;5.37;;
15712;SDS011;7957;51.608;6.916;2023-07-20T02:57:56;6.77;;;5.47;;
15712;SDS011;7957;51.608;6.916;2023-07-20T03:00:23;7.70;;;6.30;;
15712;SDS011;7957;51.608;6.916;2023-07-20T03:02:50;6.30;;;5.50;;
15712;SDS011;7957;51.608;6.916;2023-07-20T03:05:20;6.37;;;5.77;;
15712;SDS011;7957;51.608;6.916;2023-07-20T03:07:48;6.20;;;5.60;;
15712;SDS011;7957;51.608;6.916;2023-07-20T03:10:15;6.90;;;5.57;;
15712;SDS011;7957;51.608;6.916;2023-07-20T03:12:42;5.70;;;5.07;;
15712;SDS011;7957;51.608;6.916;2023-07-20T03:15:11;6.40;;;5.80;;
15712;SDS011;7957;51.608;6.916;2023-07-20T03:17:37;6.17;;;5.33;;
15712;SDS011;7957;51.608;6.916;2023-07-20T03:20:05;6.17;;;5.60;;
15712;SDS011;7957;51.608;6.916;2023-07-20T03:22:34;7.10;;;5.30;;
15712;SDS011;7957;51.608;6.916;2023-07-20T03:25:01;6.63;;;5.83;;
15712;SDS011;7957;51.608;6.916;2023-07-20T03:27:29;6.40;;;5.73;;
15712;SDS011;7957;51.608;6.916;2023-07-20T03:29:56;5.70;;;5.03;;
15712;SDS011;7957;51.608;6.916;2023-07-20T03:32:24;6.87;;;6.17;;
15712;SDS011;7957;51.608;6.916;2023-07-20T03:34:51;6.37;;;5.40;;
15712;SDS011;7957;51.608;6.916;2023-07-20T03:37:18;6.23;;;5.47;;
15712;SDS011;7957;51.608;6.916;2023-07-20T03:39:45;7.00;;;6.13;;
15712;SDS011;7957;51.608;6.916;2023-07-20T03:42:12;6.37;;;5.77;;
15712;SDS011;7957;51.608;6.916;2023-07-20T03:44:39;7.67;;;6.40;;
15712;SDS011;7957;51.608;6.916;2023-07-20T03:47:06;6.80;;;6.17;;
15712;SDS011;7957;51.608;6.916;2023-07-20T03:49:34;6.50;;;5.83;;
15712;SDS011;7957;51.608;6.916;2023-07-20T03:52:01;6.40;;;5.80;;
15712;SDS011;7957;51.608;6.916;2023-07-20T03:54:29;6.40;;;5.80;;
15712;SDS011;7957;51.608;6.916;2023-07-20T03:56:56;7.03;;;6.10;;
15712;SDS011;7957;51.608;6.916;2023-07-20T03:59:23;6.00;;;5.40;;
15712;SDS011;7957;51.608;6.916;2023-07-20T04:01:50;6.27;;;5.67;;
15712;SDS011;7957;51.608;6.916;2023-07-20T04:04:17;6.73;;;6.03;;
15712;SDS011;7957;51.608;6.916;2023-07-20T04:06:46;6.33;;;5.73;;
15712;SDS011;7957;51.608;6.916;2023-07-20T04:09:13;5.97;;;5.37;;
15712;SDS011;7957;51.608;6.916;2023-07-20T04:11:40;6.43;;;5.10;;
15712;SDS011;7957;51.608;6.916;2023-07-20T04:14:06;5.40;;;4.90;;
15712;SDS011;7957;51.608;6.916;2023-07-20T04:16:33;5.77;;;5.13;;
15712;SDS011;7957;51.608;6.916;2023-07-20T04:19:00;6.30;;;5.70;;
15712;SDS011;7957;51.608;6.916;2023-07-20T04:21:27;5.87;;;5.37;;
15712;SDS011;7957;51.608;6.916;2023-07-20T04:23:55;7.57;;;5.63;;
15712;SDS011;7957;51.608;6.916;2023-07-20T04:26:22;5.97;;;5.40;;
15712;SDS011;7957;51.608;6.916;2023-07-20T04:28:49;6.37;;;5.77;;
15712;SDS011;7957;51.608;6.916;2023-07-20T04:31:17;6.17;;;5.53;;
15712;SDS011;7957;51.608;6.916;2023-07-20T04:33:44;6.07;;;5.47;;
15712;SDS011;7957;51.608;6.916;2023-07-20T04:36:12;5.77;;;5.27;;
15712;SDS011;7957;51.608;6.916;2023-07-20T04:38:41;5.93;;;5.37;;
15712;SDS011;7957;51.608;6.916;2023-07-20T04:41:10;5.63;;;5.00;;
15712;SDS011;7957;51.608;6.916;2023-07-20T04:43:40;5.73;;;5.13;;
15712;SDS011;7957;51.608;6.916;2023-07-20T04:46:08;5.27;;;4.77;;
15712;SDS011;7957;51.608;6.916;2023-07-20T04:48:35;5.90;;;5.13;;
15712;SDS011;7957;51.608;6.916;2023-07-20T04:51:02;5.37;;;4.87;;
15712;SDS011;7957;51.608;6.916;2023-07-20T04:53:29;5.20;;;4.80;;
15712;SDS011;7957;51.608;6.916;2023-07-20T04:55:57;6.13;;;5.00;;
15712;SDS011;7957;51.608;6.916;2023-07-20T04:58:25;5.30;;;4.90;;
15712;SDS011;7957;51.608;6.916;2023-07-20T05:00:53;5.23;;;4.73;;
15712;SDS011;7957;51.608;6.916;2023-07-20T05:03:20;5.13;;;4.63;;
15712;SDS011;7957;51.608;6.916;2023-07-20T05:05:47;5.30;;;4.70;;
15712;SDS011;7957;51.608;6.916;2023-07-20T05:08:14;6.43;;;5.17;;
15712;SDS011;7957;51.608;6.916;2023-07-20T05:10:41;5.60;;;5.10;;
15712;SDS011;7957;51.608;6.916;2023-07-20T05:13:08;6.13;;;4.73;;
15712;SDS011;7957;51.608;6.916;2023-07-20T05:15:36;5.43;;;5.00;;
15712;SDS011;7957;51.608;6.916;2023-07-20T05:18:03;6.03;;;5.00;;
15712;SDS011;7957;51.608;6.916;2023-07-20T05:20:30;5.17;;;4.77;;
15712;SDS011;7957;51.608;6.916;2023-07-20T05:22:58;5.50;;;5.00;;
15712;SDS011;7957;51.608;6.916;2023-07-20T05:25:26;5.77;;;4.80;;
15712;SDS011;7957;51.608;6.916;2023-07-20T05:27:53;5.10;;;4.60;;
15712;SDS011;7957;51.608;6.916;2023-07-20T05:30:20;5.20;;;4.70;;
15712;SDS011;7957;51.608;6.916;2023-07-20T05:32:49;4.40;;;4.00;;
15712;SDS011;7957;51.608;6.916;2023-07-20T05:35:17;4.63;;;4.33;;
15712;SDS011;7957;51.608;6.916;2023-07-20T05:37:44;5.33;;;4.83;;
15712;SDS011;7957;51.608;6.916;2023-07-20T05:40:12;5.03;;;4.63;;
15712;SDS011;7957;51.608;6.916;2023-07-20T05:42:43;5.13;;;4.63;;
15712;SDS011;7957;51.608;6.916;2023-07-20T05:45:10;5.93;;;4.37;;
15712;SDS011;7957;51.608;6.916;2023-07-20T05:47:38;5.00;;;4.37;;
15712;SDS011;7957;51.608;6.916;2023-07-20T05:50:07;4.43;;;4.03;;
15712;SDS011;7957;51.608;6.916;2023-07-20T05:52:34;4.43;;;4.03;;
15712;SDS011;7957;51.608;6.916;2023-07-20T05:55:04;5.80;;;4.37;;
15712;SDS011;7957;51.608;6.916;2023-07-20T05:57:31;4.43;;;3.93;;
15712;SDS011;7957;51.608;6.916;2023-07-20T05:59:58;4.70;;;4.33;;
15712;SDS011;7957;51.608;6.916;2023-07-20T06:02:25;4.57;;;4.17;;
15712;SDS011;7957;51.608;6.916;2023-07-20T06:04:52;4.50;;;4.10;;
15712;SDS011;7957;51.608;6.916;2023-07-20T06:07:22;5.63;;;4.57;;
15712;SDS011;7957;51.608;6.916;2023-07-20T06:09:49;4.07;;;3.70;;
15712;SDS011;7957;51.608;6.916;2023-07-20T06:12:16;4.17;;;3.87;;
15712;SDS011;7957;51.608;6.916;2023-07-20T06:14:42;4.00;;;3.70;;
15712;SDS011;7957;51.608;6.916;2023-07-20T06:17:09;3.87;;;3.57;;
15712;SDS011;7957;51.608;6.916;2023-07-20T06:19:37;4.37;;;3.97;;
15712;SDS011;7957;51.608;6.916;2023-07-20T06:22:04;3.90;;;3.60;;
15712;SDS011;7957;51.608;6.916;2023-07-20T06:24:32;4.03;;;3.60;;
15712;SDS011;7957;51.608;6.916;2023-07-20T06:26:59;4.27;;;3.30;;
15712;SDS011;7957;51.608;6.916;2023-07-20T06:29:27;5.03;;;3.50;;
15712;SDS011;7957;51.608;6.916;2023-07-20T06:31:54;4.83;;;3.60;;
15712;SDS011;7957;51.608;6.916;2023-07-20T06:34:21;3.33;;;3.13;;
15712;SDS011;7957;51.608;6.916;2023-07-20T06:36:48;3.23;;;3.00;;
15712;SDS011;7957;51.608;6.916;2023-07-20T06:39:15;4.03;;;3.13;;
15712;SDS011;7957;51.608;6.916;2023-07-20T06:41:44;2.80;;;2.60;;
15712;SDS011;7957;51.608;6.916;2023-07-20T06:44:11;3.83;;;3.10;;
15712;SDS011;7957;51.608;6.916;2023-07-20T06:46:38;3.37;;;3.07;;
15712;SDS011;7957;51.608;6.916;2023-07-20T06:49:06;3.10;;;2.70;;
15712;SDS011;7957;51.608;6.916;2023-07-20T06:51:33;2.80;;;2.60;;
15712;SDS011;7957;51.608;6.916;2023-07-20T06:54:01;2.97;;;2.70;;
15712;SDS011;7957;51.608;6.916;2023-07-20T06:56:29;2.73;;;2.53;;
15712;SDS011;7957;51.608;6.916;2023-07-20T06:58:58;2.73;;;2.50;;
15712;SDS011;7957;51.608;6.916;2023-07-20T07:01:24;2.60;;;2.40;;
15712;SDS011;7957;51.608;6.916;2023-07-20T07:03:51;2.53;;;2.33;;
15712;SDS011;7957;51.608;6.916;2023-07-20T07:06:18;3.20;;;2.50;;
15712;SDS011;7957;51.608;6.916;2023-07-20T07:08:46;2.47;;;2.07;;
15712;SDS011;7957;51.608;6.916;2023-07-20T07:11:13;2.60;;;2.40;;
15712;SDS011;7957;51.608;6.916;2023-07-20T07:13:39;2.03;;;1.87;;
15712;SDS011;7957;51.608;6.916;2023-07-20T07:16:08;2.27;;;2.07;;
15712;SDS011;7957;51.608;6.916;2023-07-20T07:18:35;2.07;;;1.87;;
15712;SDS011;7957;51.608;6.916;2023-07-20T07:21:01;2.37;;;1.97;;
15712;SDS011;7957;51.608;6.916;2023-07-20T07:23:28;2.37;;;2.00;;
15712;SDS011;7957;51.608;6.916;2023-07-20T07:25:55;2.00;;;1.90;;
15712;SDS011;7957;51.608;6.916;2023-07-20T07:28:22;1.77;;;1.67;;
15712;SDS011;7957;51.608;6.916;2023-07-20T07:30:49;2.00;;;1.80;;
15712;SDS011;7957;51.608;6.916;2023-07-20T07:33:17;2.70;;;1.67;;
15712;SDS011;7957;51.608;6.916;2023-07-20T07:35:44;2.50;;;1.70;;
15712;SDS011;7957;51.608;6.916;2023-07-20T07:38:11;2.37;;;1.90;;
15712;SDS011;7957;51.608;6.916;2023-07-20T07:40:38;1.93;;;1.83;;
15712;SDS011;7957;51.608;6.916;2023-07-20T07:43:05;3.27;;;2.00;;
15712;SDS011;7957;51.608;6.916;2023-07-20T07:45:34;3.80;;;2.23;;
15712;SDS011;7957;51.608;6.916;2023-07-20T07:48:01;3.87;;;2.20;;
15712;SDS011;7957;51.608;6.916;2023-07-20T07:50:30;3.03;;;2.20;;
15712;SDS011;7957;51.608;6.916;2023-07-20T07:52:57;3.17;;;2.00;;
15712;SDS011;7957;51.608;6.916;2023-07-20T07:55:24;2.47;;;1.93;;
15712;SDS011;7957;51.608;6.916;2023-07-20T07:57:53;2.07;;;1.90;;
15712;SDS011;7957;51.608;6.916;2023-07-20T08:00:20;4.63;;;2.00;;
15712;SDS011;7957;51.608;6.916;2023-07-20T08:02:47;4.27;;;2.20;;
15712;SDS011;7957;51.608;6.916;2023-07-20T08:05:14;3.20;;;1.90;;
15712;SDS011;7957;51.608;6.916;2023-07-20T08:07:42;2.07;;;1.87;;
15712;SDS011;7957;51.608;6.916;2023-07-20T08:10:10;2.07;;;1.80;;
15712;SDS011;7957;51.608;6.916;2023-07-20T08:12:37;2.43;;;1.97;;
15712;SDS011;7957;51.608;6.916;2023-07-20T08:15:04;2.07;;;1.87;;
15712;SDS011;7957;51.608;6.916;2023-07-20T08:17:32;2.33;;;2.03;;
15712;SDS011;7957;51.608;6.916;2023-07-20T08:19:59;2.83;;;1.70;;
15712;SDS011;7957;51.608;6.916;2023-07-20T08:22:25;2.37;;;1.80;;
15712;SDS011;7957;51.608;6.916;2023-07-20T08:24:54;1.83;;;1.73;;
15712;SDS011;7957;51.608;6.916;2023-07-20T08:27:21;2.07;;;1.63;;
15712;SDS011;7957;51.608;6.916;2023-07-20T08:29:48;1.50;;;1.40;;
15712;SDS011;7957;51.608;6.916;2023-07-20T08:32:15;2.00;;;1.50;;
15712;SDS011;7957;51.608;6.916;2023-07-20T08:34:42;1.87;;;1.60;;
15712;SDS011;7957;51.608;6.916;2023-07-20T08:37:09;1.90;;;1.67;;
15712;SDS011;7957;51.608;6.916;2023-07-20T08:39:36;2.23;;;1.50;;
15712;SDS011;7957;51.608;6.916;2023-07-20T08:42:07;1.60;;;1.50;;
15712;SDS011;7957;51.608;6.916;2023-07-20T08:44:35;1.53;;;1.43;;
15712;SDS011;7957;51.608;6.916;2023-07-20T08:47:04;1.60;;;1.50;;
15712;SDS011;7957;51.608;6.916;2023-07-20T08:49:33;1.60;;;1.50;;
15712;SDS011;7957;51.608;6.916;2023-07-20T08:52:00;1.33;;;1.23;;
15712;SDS011;7957;51.608;6.916;2023-07-20T08:54:29;1.80;;;1.53;;
15712;SDS011;7957;51.608;6.916;2023-07-20T08:56:58;2.73;;;1.20;;
15712;SDS011;7957;51.608;6.916;2023-07-20T08:59:29;1.70;;;1.30;;
15712;SDS011;7957;51.608;6.916;2023-07-20T09:01:58;2.40;;;1.57;;
15712;SDS011;7957;51.608;6.916;2023-07-20T09:04:25;1.67;;;1.20;;
15712;SDS011;7957;51.608;6.916;2023-07-20T09:06:52;1.50;;;1.40;;
15712;SDS011;7957;51.608;6.916;2023-07-20T09:09:19;1.10;;;1.00;;
15712;SDS011;7957;51.608;6.916;2023-07-20T09:11:47;1.73;;;1.27;;
15712;SDS011;7957;51.608;6.916;2023-07-20T09:14:14;1.97;;;1.40;;
15712;SDS011;7957;51.608;6.916;2023-07-20T09:16:48;1.20;;;1.10;;
15712;SDS011;7957;51.608;6.916;2023-07-20T09:19:16;1.00;;;1.00;;
15712;SDS011;7957;51.608;6.916;2023-07-20T09:21:44;1.47;;;1.27;;
15712;SDS011;7957;51.608;6.916;2023-07-20T09:24:12;2.13;;;1.17;;
15712;SDS011;7957;51.608;6.916;2023-07-20T09:26:42;1.30;;;1.20;;
15712;SDS011;7957;51.608;6.916;2023-07-20T09:29:13;1.20;;;1.10;;
15712;SDS011;7957;51.608;6.916;2023-07-20T09:31:40;2.73;;;1.10;;
15712;SDS011;7957;51.608;6.916;2023-07-20T09:34:08;1.23;;;1.10;;
15712;SDS011;7957;51.608;6.916;2023-07-20T09:36:35;1.43;;;1.20;;
15712;SDS011;7957;51.608;6.916;2023-07-20T09:39:03;1.17;;;1.10;;
15712;SDS011;7957;51.608;6.916;2023-07-20T09:41:30;1.73;;;1.10;;
15712;SDS011;7957;51.608;6.916;2023-07-20T09:44:06;1.20;;;1.10;;
15712;SDS011;7957;51.608;6.916;2023-07-20T09:46:41;1.10;;;1.00;;
15712;SDS011;7957;51.608;6.916;2023-07-20T09:49:11;1.37;;;1.20;;
15712;SDS011;7957;51.608;6.916;2023-07-20T09:51:37;1.20;;;1.10;;
15712;SDS011;7957;51.608;6.916;2023-07-20T09:54:04;1.33;;;1.13;;
15712;SDS011;7957;51.608;6.916;2023-07-20T09:56:32;1.00;;;1.00;;
15712;SDS011;7957;51.608;6.916;2023-07-20T09:59:01;2.00;;;1.10;;
15712;SDS011;7957;51.608;6.916;2023-07-20T10:01:29;1.07;;;1.00;;
15712;SDS011;7957;51.608;6.916;2023-07-20T10:03:59;3.17;;;1.23;;
15712;SDS011;7957;51.608;6.916;2023-07-20T10:06:32;1.00;;;0.90;;
15712;SDS011;7957;51.608;6.916;2023-07-20T10:09:02;0.90;;;0.90;;
15712;SDS011;7957;51.608;6.916;2023-07-20T10:11:33;1.00;;;0.90;;
15712;SDS011;7957;51.608;6.916;2023-07-20T10:14:03;1.60;;;1.07;;
15712;SDS011;7957;51.608;6.916;2023-07-20T10:16:32;0.90;;;0.90;;
15712;SDS011;7957;51.608;6.916;2023-07-20T10:19:02;1.37;;;1.00;;
15712;SDS011;7957;51.608;6.916;2023-07-20T10:21:37;1.20;;;1.10;;
15712;SDS011;7957;51.608;6.916;2023-07-20T10:24:08;1.00;;;0.90;;
15712;SDS011;7957;51.608;6.916;2023-07-20T10:26:36;0.83;;;0.83;;
15712;SDS011;7957;51.608;6.916;2023-07-20T10:29:03;2.10;;;1.20;;
15712;SDS011;7957;51.608;6.916;2023-07-20T10:31:31;0.80;;;0.80;;
15712;SDS011;7957;51.608;6.916;2023-07-20T10:33:59;0.80;;;0.80;;
15712;SDS011;7957;51.608;6.916;2023-07-20T10:36:27;1.27;;;1.10;;
15712;SDS011;7957;51.608;6.916;2023-07-20T10:38:56;0.93;;;0.93;;
15712;SDS011;7957;51.608;6.916;2023-07-20T10:41:27;1.10;;;0.93;;
15712;SDS011;7957;51.608;6.916;2023-07-20T10:43:58;2.53;;;1.20;;
15712;SDS011;7957;51.608;6.916;2023-07-20T10:46:33;0.83;;;0.83;;
15712;SDS011;7957;51.608;6.916;2023-07-20T10:49:01;0.93;;;0.90;;
15712;SDS011;7957;51.608;6.916;2023-07-20T10:51:29;1.27;;;1.17;;
15712;SDS011;7957;51.608;6.916;2023-07-20T10:54:07;0.90;;;0.90;;
15712;SDS011;7957;51.608;6.916;2023-07-20T10:56:35;0.90;;;0.90;;
15712;SDS011;7957;51.608;6.916;2023-07-20T10:59:02;0.90;;;0.90;;
15712;SDS011;7957;51.608;6.916;2023-07-20T11:01:44;1.63;;;0.90;;
15712;SDS011;7957;51.608;6.916;2023-07-20T11:04:12;0.97;;;0.97;;
15712;SDS011;7957;51.608;6.916;2023-07-20T11:06:41;1.00;;;0.90;;
15712;SDS011;7957;51.608;6.916;2023-07-20T11:09:11;2.10;;;1.00;;
15712;SDS011;7957;51.608;6.916;2023-07-20T11:11:40;1.20;;;0.97;;
15712;SDS011;7957;51.608;6.916;2023-07-20T11:14:09;0.90;;;0.90;;
15712;SDS011;7957;51.608;6.916;2023-07-20T11:16:38;1.20;;;1.10;;
15712;SDS011;7957;51.608;6.916;2023-07-20T11:19:13;0.70;;;0.70;;
15712;SDS011;7957;51.608;6.916;2023-07-20T11:21:42;1.03;;;0.80;;
15712;SDS011;7957;51.608;6.916;2023-07-20T11:24:12;1.03;;;1.00;;
15712;SDS011;7957;51.608;6.916;2023-07-20T11:26:40;0.80;;;0.80;;
15712;SDS011;7957;51.608;6.916;2023-07-20T11:29:07;0.80;;;0.80;;
15712;SDS011;7957;51.608;6.916;2023-07-20T11:31:35;0.90;;;0.90;;
15712;SDS011;7957;51.608;6.916;2023-07-20T11:34:02;1.30;;;0.97;;
15712;SDS011;7957;51.608;6.916;2023-07-20T11:36:29;1.27;;;0.90;;
15712;SDS011;7957;51.608;6.916;2023-07-20T11:38:56;1.00;;;0.90;;
15712;SDS011;7957;51.608;6.916;2023-07-20T11:41:25;0.70;;;0.70;;
15712;SDS011;7957;51.608;6.916;2023-07-20T11:43:53;0.87;;;0.73;;
15712;SDS011;7957;51.608;6.916;2023-07-20T11:46:21;1.00;;;0.90;;
15712;SDS011;7957;51.608;6.916;2023-07-20T11:48:47;0.83;;;0.73;;
15712;SDS011;7957;51.608;6.916;2023-07-20T11:51:14;1.10;;;1.00;;
15712;SDS011;7957;51.608;6.916;2023-07-20T11:53:42;1.27;;;1.00;;
15712;SDS011;7957;51.608;6.916;2023-07-20T11:56:11;0.80;;;0.80;;
15712;SDS011;7957;51.608;6.916;2023-07-20T11:58:43;1.10;;;0.90;;
15712;SDS011;7957;51.608;6.916;2023-07-20T12:01:11;0.90;;;0.90;;
15712;SDS011;7957;51.608;6.916;2023-07-20T12:03:38;1.60;;;0.97;;
15712;SDS011;7957;51.608;6.916;2023-07-20T12:06:06;1.00;;;0.90;;
15712;SDS011;7957;51.608;6.916;2023-07-20T12:08:34;0.83;;;0.80;;
15712;SDS011;7957;51.608;6.916;2023-07-20T12:11:01;0.60;;;0.60;;
15712;SDS011;7957;51.608;6.916;2023-07-20T12:13:38;1.57;;;0.90;;
15712;SDS011;7957;51.608;6.916;2023-07-20T12:16:14;0.80;;;0.80;;
15712;SDS011;7957;51.608;6.916;2023-07-20T12:18:43;1.53;;;0.80;;
15712;SDS011;7957;51.608;6.916;2023-07-20T12:21:10;0.80;;;0.80;;
15712;SDS011;7957;51.608;6.916;2023-07-20T12:23:37;0.90;;;0.87;;
15712;SDS011;7957;51.608;6.916;2023-07-20T12:26:06;1.57;;;0.90;;
15712;SDS011;7957;51.608;6.916;2023-07-20T12:28:35;1.00;;;1.00;;
15712;SDS011;7957;51.608;6.916;2023-07-20T12:31:06;2.47;;;1.10;;
15712;SDS011;7957;51.608;6.916;2023-07-20T12:33:34;1.17;;;1.07;;
15712;SDS011;7957;51.608;6.916;2023-07-20T12:36:01;1.00;;;1.00;;
15712;SDS011;7957;51.608;6.916;2023-07-20T12:38:28;1.00;;;0.90;;
15712;SDS011;7957;51.608;6.916;2023-07-20T12:40:56;1.30;;;1.07;;
15712;SDS011;7957;51.608;6.916;2023-07-20T12:43:23;0.90;;;0.90;;
15712;SDS011;7957;51.608;6.916;2023-07-20T12:45:53;1.27;;;0.90;;
15712;SDS011;7957;51.608;6.916;2023-07-20T12:48:38;0.93;;;0.93;;
15712;SDS011;7957;51.608;6.916;2023-07-20T12:51:06;1.67;;;1.07;;
15712;SDS011;7957;51.608;6.916;2023-07-20T12:53:34;0.77;;;0.77;;
15712;SDS011;7957;51.608;6.916;2023-07-20T12:56:01;1.00;;;1.00;;
15712;SDS011;7957;51.608;6.916;2023-07-20T12:58:28;1.03;;;0.93;;
15712;SDS011;7957;51.608;6.916;2023-07-20T13:00:55;1.17;;;1.00;;
15712;SDS011;7957;51.608;6.916;2023-07-20T13:03:22;1.37;;;0.90;;
15712;SDS011;7957;51.608;6.916;2023-07-20T13:05:51;1.13;;;1.00;;
15712;SDS011;7957;51.608;6.916;2023-07-20T13:08:18;1.20;;;1.10;;
15712;SDS011;7957;51.608;6.916;2023-07-20T13:10:45;20.90;;;2.50;;
15712;SDS011;7957;51.608;6.916;2023-07-20T13:13:12;1.43;;;1.10;;
15712;SDS011;7957;51.608;6.916;2023-07-20T13:15:42;1.57;;;1.07;;
15712;SDS011;7957;51.608;6.916;2023-07-20T13:18:11;1.90;;;1.17;;
15712;SDS011;7957;51.608;6.916;2023-07-20T13:20:38;2.20;;;1.10;;
15712;SDS011;7957;51.608;6.916;2023-07-20T13:23:07;12.27;;;1.60;;
15712;SDS011;7957;51.608;6.916;2023-07-20T13:25:34;5.83;;;1.30;;
15712;SDS011;7957;51.608;6.916;2023-07-20T13:30:52;1.63;;;1.20;;
15712;SDS011;7957;51.608;6.916;2023-07-20T13:33:19;2.00;;;1.30;;
15712;SDS011;7957;51.608;6.916;2023-07-20T13:35:46;0.87;;;0.87;;
15712;SDS011;7957;51.608;6.916;2023-07-20T13:38:14;2.13;;;1.20;;
15712;SDS011;7957;51.608;6.916;2023-07-20T13:40:41;4.03;;;1.23;;
15712;SDS011;7957;51.608;6.916;2023-07-20T13:43:08;2.77;;;1.20;;
15712;SDS011;7957;51.608;6.916;2023-07-20T13:45:36;1.80;;;1.33;;
15712;SDS011;7957;51.608;6.916;2023-07-20T13:48:02;1.77;;;1.20;;
15712;SDS011;7957;51.608;6.916;2023-07-20T13:50:29;2.50;;;1.10;;
15712;SDS011;7957;51.608;6.916;2023-07-20T13:52:56;1.03;;;0.90;;
15712;SDS011;7957;51.608;6.916;2023-07-20T13:55:25;1.23;;;1.13;;
15712;SDS011;7957;51.608;6.916;2023-07-20T13:57:52;1.10;;;1.10;;
15712;SDS011;7957;51.608;6.916;2023-07-20T14:00:19;1.20;;;1.10;;
15712;SDS011;7957;51.608;6.916;2023-07-20T14:02:46;1.03;;;0.90;;
15712;SDS011;7957;51.608;6.916;2023-07-20T14:05:13;1.10;;;1.00;;
15712;SDS011;7957;51.608;6.916;2023-07-20T14:07:41;0.93;;;0.90;;
15712;SDS011;7957;51.608;6.916;2023-07-20T14:10:08;2.30;;;1.30;;
15712;SDS011;7957;51.608;6.916;2023-07-20T14:12:37;1.00;;;1.00;;
15712;SDS011;7957;51.608;6.916;2023-07-20T14:15:05;1.50;;;1.07;;
15712;SDS011;7957;51.608;6.916;2023-07-20T14:17:32;1.37;;;1.10;;
15712;SDS011;7957;51.608;6.916;2023-07-20T14:19:59;1.70;;;1.20;;
15712;SDS011;7957;51.608;6.916;2023-07-20T14:22:26;1.03;;;0.97;;
15712;SDS011;7957;51.608;6.916;2023-07-20T14:24:52;1.73;;;1.30;;
15712;SDS011;7957;51.608;6.916;2023-07-20T14:27:19;1.13;;;1.10;;
15712;SDS011;7957;51.608;6.916;2023-07-20T14:29:48;2.17;;;1.10;;
15712;SDS011;7957;51.608;6.916;2023-07-20T14:32:14;2.47;;;1.10;;
15712;SDS011;7957;51.608;6.916;2023-07-20T14:34:41;1.23;;;1.20;;
15712;SDS011;7957;51.608;6.916;2023-07-20T14:37:08;1.50;;;1.20;;
15712;SDS011;7957;51.608;6.916;2023-07-20T14:39:35;1.10;;;1.00;;
15712;SDS011;7957;51.608;6.916;2023-07-20T14:42:02;1.80;;;1.20;;
15712;SDS011;7957;51.608;6.916;2023-07-20T14:44:29;2.63;;;1.20;;
15712;SDS011;7957;51.608;6.916;2023-07-20T14:46:58;1.10;;;1.00;;
15712;SDS011;7957;51.608;6.916;2023-07-20T14:49:25;1.83;;;1.10;;
15712;SDS011;7957;51.608;6.916;2023-07-20T14:51:52;1.17;;;1.00;;
15712;SDS011;7957;51.608;6.916;2023-07-20T14:54:20;1.97;;;1.30;;
15712;SDS011;7957;51.608;6.916;2023-07-20T14:56:49;1.57;;;1.30;;
15712;SDS011;7957;51.608;6.916;2023-07-20T14:59:17;1.20;;;1.10;;
15712;SDS011;7957;51.608;6.916;2023-07-20T15:01:46;1.57;;;1.10;;
15712;SDS011;7957;51.608;6.916;2023-07-20T15:04:14;1.43;;;1.20;;
15712;SDS011;7957;51.608;6.916;2023-07-20T15:06:44;2.00;;;1.27;;
15712;SDS011;7957;51.608;6.916;2023-07-20T15:09:10;1.30;;;1.20;;